createdAt,value
2017-03-26T00:00:36.645Z,19.8
2017-03-26T00:04:35.850Z,19.74
2017-03-26T00:05:51.996Z,19.7
2017-03-26T00:06:37.131Z,19.71
2017-03-26T00:07:22.284Z,19.71
2017-03-26T00:07:36.463Z,19.68
2017-03-26T00:08:52.588Z,19.68
2017-03-26T00:10:39.681Z,19.74
2017-03-26T00:12:26.801Z,19.67
2017-03-26T00:14:13.947Z,19.56
2017-03-26T00:15:30.092Z,19.56
2017-03-26T00:17:31.503Z,19.63
2017-03-26T00:17:45.629Z,19.57
2017-03-26T00:19:01.784Z,19.52
2017-03-26T00:19:46.884Z,19.57
2017-03-26T00:20:00.978Z,19.61
2017-03-26T00:20:49.158Z,19.55
2017-03-26T00:26:43.051Z,19.57
2017-03-26T00:26:57.171Z,19.68
2017-03-26T00:31:58.024Z,19.75
2017-03-26T00:32:12.190Z,19.74
2017-03-26T00:33:00.849Z,19.75
2017-03-26T00:33:46.060Z,19.79
2017-03-26T00:38:05.392Z,19.7
2017-03-26T00:39:21.575Z,19.71
2017-03-26T00:40:06.744Z,19.79
2017-03-26T00:40:20.886Z,19.9
2017-03-26T00:41:06.015Z,19.9
2017-03-26T00:45:39.577Z,19.86
2017-03-26T00:50:00.774Z,19.6
2017-03-26T00:53:35.014Z,19.49
2017-03-26T00:59:06.094Z,19.38
2017-03-26T00:59:20.264Z,19.47
2017-03-26T01:03:59.844Z,19.46
2017-03-26T01:05:47.015Z,19.43
2017-03-26T01:12:24.503Z,19.37
2017-03-26T01:13:40.603Z,19.45
2017-03-26T01:13:54.756Z,19.42
2017-03-26T01:15:10.905Z,19.45
2017-03-26T01:16:27.059Z,19.38
2017-03-26T01:17:12.175Z,19.49
2017-03-26T01:17:57.353Z,19.45
2017-03-26T01:18:42.456Z,19.47
2017-03-26T01:25:34.110Z,19.53
2017-03-26T01:27:35.386Z,19.56
2017-03-26T01:29:36.672Z,19.42
2017-03-26T01:30:52.804Z,19.43
2017-03-26T01:32:39.932Z,19.56
2017-03-26T01:34:27.054Z,19.56
2017-03-26T01:34:41.176Z,19.61
2017-03-26T01:36:59.393Z,19.49
2017-03-26T01:37:13.546Z,19.65
2017-03-26T01:39:00.669Z,19.63
2017-03-26T01:40:16.788Z,19.65
2017-03-26T01:41:01.960Z,19.67
2017-03-26T01:41:16.068Z,19.68
2017-03-26T01:43:03.178Z,19.57
2017-03-26T01:44:50.312Z,19.43
2017-03-26T01:45:35.420Z,19.49
2017-03-26T01:47:22.535Z,19.47
2017-03-26T01:49:09.622Z,19.42
2017-03-26T01:49:54.729Z,19.49
2017-03-26T01:51:10.846Z,19.4
2017-03-26T01:52:58.456Z,19.46
2017-03-26T01:54:14.528Z,19.49
2017-03-26T01:55:30.644Z,19.4
2017-03-26T01:57:17.748Z,19.38
2017-03-26T02:04:54.509Z,19.25
2017-03-26T02:05:39.693Z,19.3
2017-03-26T02:07:40.991Z,19.15
2017-03-26T02:13:47.527Z,19.2
2017-03-26T02:14:32.688Z,19.28
2017-03-26T02:15:17.824Z,19.24
2017-03-26T02:21:24.219Z,19.15
2017-03-26T02:21:38.356Z,19.24
2017-03-26T02:25:12.620Z,19.13
2017-03-26T02:27:44.922Z,18.99
2017-03-26T02:30:17.165Z,19.09
2017-03-26T02:32:35.253Z,19.1
2017-03-26T02:32:49.392Z,19.09
2017-03-26T02:33:03.586Z,18.99
2017-03-26T02:35:36.081Z,18.96
2017-03-26T02:37:37.380Z,19.06
2017-03-26T02:38:22.503Z,18.94
2017-03-26T02:39:38.602Z,18.97
2017-03-26T02:45:14.172Z,18.9
2017-03-26T02:46:30.292Z,18.94
2017-03-26T02:47:15.440Z,18.87
2017-03-26T02:48:00.580Z,18.91
2017-03-26T02:48:14.739Z,18.96
2017-03-26T02:49:30.847Z,18.93
2017-03-26T02:50:15.973Z,18.91
2017-03-26T02:50:30.083Z,18.91
2017-03-26T02:54:04.301Z,18.86
2017-03-26T02:54:49.439Z,18.9
2017-03-26T02:56:05.548Z,18.9
2017-03-26T02:57:21.737Z,18.86
2017-03-26T02:59:08.828Z,18.84
2017-03-26T03:01:42.499Z,18.78
2017-03-26T03:07:42.934Z,18.75
2017-03-26T03:07:57.142Z,18.76
2017-03-26T03:08:42.298Z,18.68
2017-03-26T03:09:27.411Z,18.72
2017-03-26T03:13:01.712Z,18.69
2017-03-26T03:14:18.071Z,18.81
2017-03-26T03:17:04.508Z,18.79
2017-03-26T03:23:23.094Z,18.71
2017-03-26T03:26:05.652Z,18.63
2017-03-26T03:26:50.775Z,18.68
2017-03-26T03:28:06.970Z,18.54
2017-03-26T03:30:09.477Z,18.71
2017-03-26T03:32:40.846Z,18.56
2017-03-26T03:34:52.623Z,18.61
2017-03-26T03:37:59.099Z,18.65
2017-03-26T03:38:13.216Z,18.66
2017-03-26T03:40:45.437Z,18.57
2017-03-26T03:41:30.537Z,18.6
2017-03-26T03:42:15.643Z,18.53
2017-03-26T03:43:00.839Z,18.56
2017-03-26T03:45:36.636Z,18.42
2017-03-26T03:48:28.094Z,18.59
2017-03-26T03:53:34.380Z,18.53
2017-03-26T03:55:21.713Z,18.57
2017-03-26T03:56:06.805Z,18.54
2017-03-26T03:57:22.920Z,18.44
2017-03-26T04:01:24.202Z,18.41
2017-03-26T04:03:12.520Z,18.42
2017-03-26T04:03:30.323Z,18.45
2017-03-26T04:04:17.343Z,18.38
2017-03-26T04:06:18.565Z,18.39
2017-03-26T04:07:03.681Z,18.36
2017-03-26T04:08:19.768Z,18.44
2017-03-26T04:08:33.942Z,18.38
2017-03-26T04:09:44.557Z,18.39
2017-03-26T04:10:29.627Z,18.29
2017-03-26T04:11:49.158Z,18.36
2017-03-26T04:13:46.053Z,18.29
2017-03-26T04:14:45.355Z,18.27
2017-03-26T04:15:19.507Z,18.34
2017-03-26T04:16:15.147Z,18.34
2017-03-26T04:19:18.970Z,18.26
2017-03-26T04:20:04.017Z,18.27
2017-03-26T04:21:20.135Z,18.23
2017-03-26T04:22:05.256Z,18.27
2017-03-26T04:22:26.472Z,18.29
2017-03-26T04:23:40.017Z,18.26
2017-03-26T04:25:46.127Z,18.31
2017-03-26T04:27:36.520Z,18.29
2017-03-26T04:28:32.765Z,18.32
2017-03-26T04:30:51.283Z,18.32
2017-03-26T04:32:39.269Z,18.31
2017-03-26T04:36:19.468Z,18.24
2017-03-26T04:37:07.682Z,18.26
2017-03-26T04:38:44.042Z,18.27
2017-03-26T04:38:58.211Z,18.24
2017-03-26T04:40:35.886Z,18.26
2017-03-26T04:40:55.106Z,18.26
2017-03-26T04:41:10.479Z,18.21
2017-03-26T04:41:38.235Z,18.26
2017-03-26T04:42:17.360Z,18.26
2017-03-26T04:42:57.253Z,18.24
2017-03-26T04:43:11.697Z,18.19
2017-03-26T04:43:58.071Z,18.23
2017-03-26T04:44:17.304Z,18.24
2017-03-26T04:45:07.749Z,18.31
2017-03-26T04:45:23.202Z,18.35
2017-03-26T04:46:09.124Z,18.31
2017-03-26T04:46:23.321Z,18.34
2017-03-26T04:46:37.551Z,18.29
2017-03-26T04:46:51.697Z,18.32
2017-03-26T04:47:09.429Z,18.34
2017-03-26T04:47:26.949Z,18.31
2017-03-26T04:47:41.068Z,18.31
2017-03-26T04:47:55.982Z,18.31
2017-03-26T04:48:10.870Z,18.35
2017-03-26T04:48:25.057Z,18.29
2017-03-26T04:48:39.545Z,18.32
2017-03-26T04:48:57.539Z,18.36
2017-03-26T04:49:12.972Z,18.27
2017-03-26T04:49:27.098Z,18.36
2017-03-26T04:49:41.240Z,18.36
2017-03-26T04:49:56.281Z,18.35
2017-03-26T04:50:12.430Z,18.39
2017-03-26T04:50:27.078Z,18.31
2017-03-26T04:50:46.406Z,18.27
2017-03-26T04:51:00.591Z,18.34
2017-03-26T04:51:14.823Z,18.36
2017-03-26T04:51:29.091Z,18.32
2017-03-26T04:51:43.725Z,18.32
2017-03-26T04:51:57.978Z,18.31
2017-03-26T04:52:12.078Z,18.24
2017-03-26T04:52:26.277Z,18.21
2017-03-26T04:52:40.458Z,18.26
2017-03-26T04:52:54.675Z,18.31
2017-03-26T04:53:08.875Z,18.31
2017-03-26T04:53:23.049Z,18.34
2017-03-26T04:53:37.262Z,18.24
2017-03-26T04:53:51.512Z,18.29
2017-03-26T04:54:05.676Z,18.32
2017-03-26T04:54:19.924Z,18.35
2017-03-26T04:54:34.103Z,18.35
2017-03-26T04:54:48.196Z,18.36
2017-03-26T04:55:02.355Z,18.31
2017-03-26T04:55:16.529Z,18.36
2017-03-26T04:55:30.703Z,18.32
2017-03-26T04:55:44.870Z,18.38
2017-03-26T04:55:59.051Z,18.32
2017-03-26T04:56:13.203Z,18.44
2017-03-26T04:56:27.298Z,18.44
2017-03-26T04:56:41.460Z,18.39
2017-03-26T04:56:55.628Z,18.39
2017-03-26T04:57:09.855Z,18.38
2017-03-26T04:57:24.023Z,18.41
2017-03-26T04:57:38.162Z,18.42
2017-03-26T04:57:52.301Z,18.36
2017-03-26T04:58:06.453Z,18.44
2017-03-26T04:58:20.565Z,18.38
2017-03-26T04:58:34.758Z,18.41
2017-03-26T04:58:48.863Z,18.38
2017-03-26T04:59:03.013Z,18.42
2017-03-26T04:59:17.172Z,18.41
2017-03-26T04:59:31.288Z,18.36
2017-03-26T04:59:45.422Z,18.41
2017-03-26T04:59:59.610Z,18.35
2017-03-26T05:00:13.742Z,18.39
2017-03-26T05:00:27.909Z,18.35
2017-03-26T05:00:42.093Z,18.36
2017-03-26T05:00:56.225Z,18.32
2017-03-26T05:01:10.390Z,18.34
2017-03-26T05:01:24.524Z,18.31
2017-03-26T05:01:38.646Z,18.34
2017-03-26T05:01:52.816Z,18.26
2017-03-26T05:02:06.964Z,18.29
2017-03-26T05:02:21.076Z,18.29
2017-03-26T05:02:35.227Z,18.29
2017-03-26T05:02:49.332Z,18.26
2017-03-26T05:03:03.626Z,18.27
2017-03-26T05:03:17.847Z,18.21
2017-03-26T05:03:31.952Z,18.23
2017-03-26T05:03:46.104Z,18.27
2017-03-26T05:04:00.291Z,18.24
2017-03-26T05:04:14.466Z,18.23
2017-03-26T05:04:28.623Z,18.2
2017-03-26T05:04:42.762Z,18.21
2017-03-26T05:04:56.903Z,18.16
2017-03-26T05:05:11.056Z,18.21
2017-03-26T05:05:25.188Z,18.08
2017-03-26T05:05:39.345Z,18.05
2017-03-26T05:05:53.485Z,18.13
2017-03-26T05:06:07.599Z,18.06
2017-03-26T05:06:21.723Z,18.05
2017-03-26T05:06:35.939Z,18.05
2017-03-26T05:06:50.165Z,18.02
2017-03-26T05:07:04.351Z,17.99
2017-03-26T05:07:18.495Z,17.98
2017-03-26T05:07:32.677Z,17.92
2017-03-26T05:07:46.814Z,17.96
2017-03-26T05:08:01.011Z,17.95
2017-03-26T05:08:15.278Z,18.01
2017-03-26T05:08:29.468Z,18.01
2017-03-26T05:08:43.646Z,18.02
2017-03-26T05:08:57.758Z,17.98
2017-03-26T05:09:11.936Z,17.96
2017-03-26T05:09:26.135Z,17.88
2017-03-26T05:09:40.304Z,17.83
2017-03-26T05:09:54.417Z,17.86
2017-03-26T05:10:08.595Z,17.74
2017-03-26T05:10:22.692Z,17.79
2017-03-26T05:10:36.915Z,17.8
2017-03-26T05:10:51.030Z,17.77
2017-03-26T05:11:05.209Z,17.76
2017-03-26T05:11:19.431Z,17.77
2017-03-26T05:11:33.533Z,17.86
2017-03-26T05:11:47.681Z,17.87
2017-03-26T05:12:01.870Z,17.79
2017-03-26T05:12:16.004Z,17.8
2017-03-26T05:12:30.141Z,17.84
2017-03-26T05:12:44.295Z,17.98
2017-03-26T05:12:58.444Z,17.95
2017-03-26T05:13:12.624Z,17.94
2017-03-26T05:13:26.791Z,17.99
2017-03-26T05:13:40.945Z,17.95
2017-03-26T05:13:55.081Z,18.02
2017-03-26T05:14:09.266Z,17.95
2017-03-26T05:14:23.430Z,17.98
2017-03-26T05:14:37.606Z,17.94
2017-03-26T05:14:51.742Z,18.02
2017-03-26T05:15:05.909Z,17.96
2017-03-26T05:15:20.023Z,17.96
2017-03-26T05:15:34.116Z,18.01
2017-03-26T05:15:48.231Z,17.99
2017-03-26T05:16:02.358Z,18.01
2017-03-26T05:16:16.506Z,18.02
2017-03-26T05:16:30.652Z,17.99
2017-03-26T05:16:44.760Z,18.02
2017-03-26T05:16:58.908Z,18.1
2017-03-26T05:17:13.049Z,18.17
2017-03-26T05:17:27.151Z,18.17
2017-03-26T05:17:41.303Z,18.17
2017-03-26T05:17:55.444Z,18.16
2017-03-26T05:18:09.723Z,18.19
2017-03-26T05:18:23.817Z,18.2
2017-03-26T05:18:37.988Z,18.19
2017-03-26T05:18:52.144Z,18.21
2017-03-26T05:19:06.338Z,18.2
2017-03-26T05:19:20.487Z,18.17
2017-03-26T05:19:34.611Z,18.2
2017-03-26T05:19:48.735Z,18.2
2017-03-26T05:20:02.949Z,18.2
2017-03-26T05:20:17.099Z,18.2
2017-03-26T05:20:31.218Z,18.21
2017-03-26T05:20:45.350Z,18.19
2017-03-26T05:20:59.473Z,18.16
2017-03-26T05:21:13.626Z,18.16
2017-03-26T05:21:27.734Z,18.16
2017-03-26T05:21:41.861Z,18.17
2017-03-26T05:21:55.976Z,18.19
2017-03-26T05:22:10.094Z,18.17
2017-03-26T05:22:24.243Z,18.2
2017-03-26T05:22:38.404Z,18.17
2017-03-26T05:22:52.554Z,18.2
2017-03-26T05:23:06.705Z,18.17
2017-03-26T05:23:21.089Z,18.2
2017-03-26T05:23:35.252Z,18.24
2017-03-26T05:23:49.384Z,18.23
2017-03-26T05:24:03.517Z,18.26
2017-03-26T05:24:17.640Z,18.24
2017-03-26T05:24:31.812Z,18.26
2017-03-26T05:24:45.957Z,18.36
2017-03-26T05:25:00.124Z,18.36
2017-03-26T05:25:14.270Z,18.32
2017-03-26T05:25:28.455Z,18.32
2017-03-26T05:25:42.594Z,18.36
2017-03-26T05:25:56.726Z,18.44
2017-03-26T05:26:10.857Z,18.35
2017-03-26T05:26:25.032Z,18.39
2017-03-26T05:26:39.190Z,18.41
2017-03-26T05:26:53.361Z,18.38
2017-03-26T05:27:07.546Z,18.41
2017-03-26T05:27:21.680Z,18.39
2017-03-26T05:27:35.828Z,18.42
2017-03-26T05:27:50.048Z,18.41
2017-03-26T05:28:04.225Z,18.38
2017-03-26T05:28:18.462Z,18.44
2017-03-26T05:28:32.612Z,18.35
2017-03-26T05:28:46.742Z,18.36
2017-03-26T05:29:00.890Z,18.32
2017-03-26T05:29:15.078Z,18.36
2017-03-26T05:29:29.214Z,18.39
2017-03-26T05:29:43.336Z,18.39
2017-03-26T05:29:57.502Z,18.41
2017-03-26T05:30:11.606Z,18.39
2017-03-26T05:30:25.771Z,18.42
2017-03-26T05:30:39.905Z,18.38
2017-03-26T05:30:54.129Z,18.38
2017-03-26T05:31:08.261Z,18.36
2017-03-26T05:31:22.410Z,18.35
2017-03-26T05:31:36.596Z,18.23
2017-03-26T05:31:50.773Z,18.34
2017-03-26T05:32:04.952Z,18.35
2017-03-26T05:32:19.078Z,18.38
2017-03-26T05:32:33.239Z,18.29
2017-03-26T05:32:47.411Z,18.29
2017-03-26T05:33:01.528Z,18.29
2017-03-26T05:33:15.821Z,18.2
2017-03-26T05:33:30.015Z,18.21
2017-03-26T05:33:44.215Z,18.2
2017-03-26T05:33:58.367Z,18.14
2017-03-26T05:34:12.525Z,18.13
2017-03-26T05:34:26.719Z,18.21
2017-03-26T05:34:40.914Z,18.05
2017-03-26T05:34:55.056Z,18.08
2017-03-26T05:35:09.224Z,17.99
2017-03-26T05:35:23.404Z,18.01
2017-03-26T05:35:37.532Z,18.05
2017-03-26T05:35:51.657Z,18.02
2017-03-26T05:36:05.820Z,17.99
2017-03-26T05:36:19.980Z,18.05
2017-03-26T05:36:34.141Z,17.98
2017-03-26T05:36:48.309Z,17.99
2017-03-26T05:37:02.497Z,17.94
2017-03-26T05:37:16.653Z,17.94
2017-03-26T05:37:30.799Z,17.87
2017-03-26T05:37:44.938Z,17.95
2017-03-26T05:37:59.107Z,17.79
2017-03-26T05:38:13.334Z,17.9
2017-03-26T05:38:27.492Z,17.83
2017-03-26T05:38:41.645Z,17.83
2017-03-26T05:38:55.727Z,17.79
2017-03-26T05:39:09.875Z,17.86
2017-03-26T05:39:24.053Z,17.83
2017-03-26T05:39:38.226Z,17.8
2017-03-26T05:39:52.336Z,17.83
2017-03-26T05:40:06.473Z,17.69
2017-03-26T05:40:20.657Z,17.81
2017-03-26T05:40:34.795Z,17.81
2017-03-26T05:40:48.896Z,17.77
2017-03-26T05:41:03.031Z,17.76
2017-03-26T05:41:17.161Z,17.73
2017-03-26T05:41:31.292Z,17.71
2017-03-26T05:41:45.453Z,17.71
2017-03-26T05:41:59.592Z,17.73
2017-03-26T05:42:13.803Z,17.71
2017-03-26T05:42:27.956Z,17.66
2017-03-26T05:42:42.302Z,17.66
2017-03-26T05:42:56.437Z,17.65
2017-03-26T05:43:10.598Z,17.65
2017-03-26T05:43:24.746Z,17.8
2017-03-26T05:43:38.837Z,17.68
2017-03-26T05:43:52.985Z,17.71
2017-03-26T05:44:07.100Z,17.68
2017-03-26T05:44:21.284Z,17.77
2017-03-26T05:44:35.467Z,17.68
2017-03-26T05:44:49.620Z,17.74
2017-03-26T05:45:03.731Z,17.66
2017-03-26T05:45:17.862Z,17.77
2017-03-26T05:45:32.017Z,17.79
2017-03-26T05:45:46.123Z,17.63
2017-03-26T05:46:00.251Z,17.8
2017-03-26T05:46:14.376Z,17.65
2017-03-26T05:46:28.500Z,17.68
2017-03-26T05:46:42.664Z,17.65
2017-03-26T05:46:56.862Z,17.69
2017-03-26T05:47:11.013Z,17.73
2017-03-26T05:47:25.151Z,17.68
2017-03-26T05:47:39.261Z,17.71
2017-03-26T05:47:53.387Z,17.66
2017-03-26T05:48:07.568Z,17.68
2017-03-26T05:48:21.837Z,17.69
2017-03-26T05:48:35.928Z,17.66
2017-03-26T05:48:50.141Z,17.66
2017-03-26T05:49:04.310Z,17.65
2017-03-26T05:49:18.501Z,17.68
2017-03-26T05:49:32.580Z,17.68
2017-03-26T05:49:46.701Z,17.63
2017-03-26T05:50:00.885Z,17.71
2017-03-26T05:50:15.078Z,17.62
2017-03-26T05:50:29.203Z,17.62
2017-03-26T05:50:43.427Z,17.58
2017-03-26T05:50:57.614Z,17.62
2017-03-26T05:51:11.806Z,17.58
2017-03-26T05:51:25.905Z,17.6
2017-03-26T05:51:40.060Z,17.63
2017-03-26T05:51:54.241Z,17.57
2017-03-26T05:52:08.356Z,17.58
2017-03-26T05:52:22.529Z,17.58
2017-03-26T05:52:36.686Z,17.6
2017-03-26T05:52:50.830Z,17.57
2017-03-26T05:53:05.169Z,17.57
2017-03-26T05:53:19.343Z,17.62
2017-03-26T05:53:33.469Z,17.62
2017-03-26T05:53:47.609Z,17.54
2017-03-26T05:54:01.761Z,17.52
2017-03-26T05:54:15.964Z,17.58
2017-03-26T05:54:30.163Z,17.54
2017-03-26T05:54:44.267Z,17.55
2017-03-26T05:54:58.380Z,17.57
2017-03-26T05:55:12.511Z,17.54
2017-03-26T05:55:26.668Z,17.55
2017-03-26T05:55:40.839Z,17.47
2017-03-26T05:55:55.021Z,17.49
2017-03-26T05:56:09.225Z,17.52
2017-03-26T05:56:23.398Z,17.52
2017-03-26T05:56:37.556Z,17.57
2017-03-26T05:56:51.733Z,17.54
2017-03-26T05:57:05.851Z,17.52
2017-03-26T05:57:20.000Z,17.47
2017-03-26T05:57:34.138Z,17.49
2017-03-26T05:57:48.277Z,17.47
2017-03-26T05:58:02.398Z,17.47
2017-03-26T05:58:16.542Z,17.43
2017-03-26T05:58:30.743Z,17.39
2017-03-26T05:58:44.819Z,17.49
2017-03-26T05:58:58.943Z,17.43
2017-03-26T05:59:13.080Z,17.39
2017-03-26T05:59:27.247Z,17.39
2017-03-26T05:59:41.352Z,17.38
2017-03-26T05:59:55.446Z,17.49
2017-03-26T06:00:09.618Z,17.45
2017-03-26T06:00:23.753Z,17.49
2017-03-26T06:00:37.884Z,17.49
2017-03-26T06:00:52.012Z,17.43
2017-03-26T06:01:06.142Z,17.42
2017-03-26T06:01:20.296Z,17.32
2017-03-26T06:01:34.460Z,17.38
2017-03-26T06:01:48.593Z,17.4
2017-03-26T06:02:02.765Z,17.35
2017-03-26T06:02:16.944Z,17.3
2017-03-26T06:02:31.072Z,17.36
2017-03-26T06:02:45.219Z,17.42
2017-03-26T06:02:59.396Z,17.32
2017-03-26T06:03:13.574Z,17.32
2017-03-26T06:03:27.836Z,17.39
2017-03-26T06:03:41.960Z,17.31
2017-03-26T06:03:56.072Z,17.4
2017-03-26T06:04:10.179Z,17.42
2017-03-26T06:04:24.313Z,17.42
2017-03-26T06:04:38.455Z,17.4
2017-03-26T06:04:52.579Z,17.4
2017-03-26T06:05:06.747Z,17.45
2017-03-26T06:05:20.887Z,17.46
2017-03-26T06:05:35.088Z,17.46
2017-03-26T06:05:49.197Z,17.43
2017-03-26T06:06:03.319Z,17.35
2017-03-26T06:06:17.473Z,17.43
2017-03-26T06:06:31.629Z,17.35
2017-03-26T06:06:45.729Z,17.39
2017-03-26T06:06:59.983Z,17.31
2017-03-26T06:07:14.137Z,17.42
2017-03-26T06:07:28.294Z,17.32
2017-03-26T06:07:42.447Z,17.31
2017-03-26T06:07:56.611Z,17.36
2017-03-26T06:08:10.786Z,17.35
2017-03-26T06:08:24.956Z,17.35
2017-03-26T06:08:39.084Z,17.39
2017-03-26T06:08:53.253Z,17.39
2017-03-26T06:09:07.444Z,17.38
2017-03-26T06:09:21.613Z,17.42
2017-03-26T06:09:35.735Z,17.38
2017-03-26T06:09:49.858Z,17.38
2017-03-26T06:10:04.008Z,17.32
2017-03-26T06:10:18.104Z,17.38
2017-03-26T06:10:32.235Z,17.38
2017-03-26T06:10:46.439Z,17.38
2017-03-26T06:11:00.565Z,17.32
2017-03-26T06:11:14.708Z,17.39
2017-03-26T06:11:28.866Z,17.25
2017-03-26T06:11:43.048Z,17.3
2017-03-26T06:11:57.182Z,17.27
2017-03-26T06:12:11.345Z,17.36
2017-03-26T06:12:25.464Z,17.28
2017-03-26T06:12:39.592Z,17.35
2017-03-26T06:12:53.724Z,17.28
2017-03-26T06:13:07.826Z,17.32
2017-03-26T06:13:21.957Z,17.28
2017-03-26T06:13:36.122Z,17.28
2017-03-26T06:13:50.246Z,17.39
2017-03-26T06:14:04.366Z,17.38
2017-03-26T06:14:18.474Z,17.35
2017-03-26T06:14:32.644Z,17.27
2017-03-26T06:14:46.737Z,17.27
2017-03-26T06:15:00.900Z,17.39
2017-03-26T06:15:15.079Z,17.28
2017-03-26T06:15:29.182Z,17.38
2017-03-26T06:15:43.344Z,17.38
2017-03-26T06:15:57.482Z,17.3
2017-03-26T06:16:11.647Z,17.3
2017-03-26T06:16:25.828Z,17.35
2017-03-26T06:16:39.923Z,17.25
2017-03-26T06:16:54.084Z,17.36
2017-03-26T06:17:08.255Z,17.27
2017-03-26T06:17:22.401Z,17.25
2017-03-26T06:17:36.513Z,17.28
2017-03-26T06:17:50.679Z,17.3
2017-03-26T06:18:04.819Z,17.35
2017-03-26T06:18:18.971Z,17.25
2017-03-26T06:18:33.099Z,17.27
2017-03-26T06:18:47.342Z,17.27
2017-03-26T06:19:01.445Z,17.35
2017-03-26T06:19:15.593Z,17.31
2017-03-26T06:19:29.800Z,17.27
2017-03-26T06:19:43.952Z,17.24
2017-03-26T06:19:58.028Z,17.28
2017-03-26T06:20:12.168Z,17.22
2017-03-26T06:20:26.374Z,17.27
2017-03-26T06:20:40.515Z,17.28
2017-03-26T06:20:54.603Z,17.28
2017-03-26T06:21:08.679Z,17.27
2017-03-26T06:21:22.789Z,17.28
2017-03-26T06:21:36.953Z,17.24
2017-03-26T06:21:51.124Z,17.28
2017-03-26T06:22:05.289Z,17.22
2017-03-26T06:22:19.460Z,17.25
2017-03-26T06:22:33.603Z,17.25
2017-03-26T06:22:47.791Z,17.28
2017-03-26T06:23:01.934Z,17.27
2017-03-26T06:23:16.002Z,17.32
2017-03-26T06:23:30.213Z,17.25
2017-03-26T06:23:44.379Z,17.31
2017-03-26T06:23:58.618Z,17.25
2017-03-26T06:24:12.786Z,17.22
2017-03-26T06:24:26.882Z,17.22
2017-03-26T06:24:41.042Z,17.35
2017-03-26T06:24:55.163Z,17.3
2017-03-26T06:25:09.304Z,17.36
2017-03-26T06:25:23.459Z,17.38
2017-03-26T06:25:37.609Z,17.39
2017-03-26T06:25:51.728Z,17.39
2017-03-26T06:26:05.862Z,17.38
2017-03-26T06:26:19.955Z,17.36
2017-03-26T06:26:34.120Z,17.3
2017-03-26T06:26:48.266Z,17.39
2017-03-26T06:27:02.468Z,17.32
2017-03-26T06:27:16.587Z,17.31
2017-03-26T06:27:30.707Z,17.32
2017-03-26T06:27:44.881Z,17.31
2017-03-26T06:27:58.996Z,17.39
2017-03-26T06:28:13.094Z,17.39
2017-03-26T06:28:27.213Z,17.38
2017-03-26T06:28:41.336Z,17.46
2017-03-26T06:28:55.546Z,17.39
2017-03-26T06:29:09.746Z,17.47
2017-03-26T06:29:23.900Z,17.45
2017-03-26T06:29:38.033Z,17.43
2017-03-26T06:29:52.180Z,17.4
2017-03-26T06:30:06.357Z,17.42
2017-03-26T06:30:20.490Z,17.45
2017-03-26T06:30:34.606Z,17.42
2017-03-26T06:30:48.769Z,17.4
2017-03-26T06:31:02.948Z,17.39
2017-03-26T06:31:17.119Z,17.38
2017-03-26T06:31:31.304Z,17.32
2017-03-26T06:31:45.436Z,17.31
2017-03-26T06:31:59.557Z,17.35
2017-03-26T06:32:13.724Z,17.42
2017-03-26T06:32:27.829Z,17.42
2017-03-26T06:32:41.935Z,17.42
2017-03-26T06:32:56.136Z,17.36
2017-03-26T06:33:10.254Z,17.39
2017-03-26T06:33:24.353Z,17.36
2017-03-26T06:33:38.473Z,17.31
2017-03-26T06:33:52.771Z,17.38
2017-03-26T06:34:06.920Z,17.31
2017-03-26T06:34:21.085Z,17.39
2017-03-26T06:34:35.199Z,17.39
2017-03-26T06:34:49.370Z,17.39
2017-03-26T06:35:03.544Z,17.39
2017-03-26T06:35:17.619Z,17.39
2017-03-26T06:35:31.726Z,17.39
2017-03-26T06:35:45.832Z,17.39
2017-03-26T06:36:00.044Z,17.35
2017-03-26T06:36:14.193Z,17.39
2017-03-26T06:36:28.359Z,17.36
2017-03-26T06:36:42.575Z,17.42
2017-03-26T06:36:56.682Z,17.39
2017-03-26T06:37:10.850Z,17.31
2017-03-26T06:37:25.004Z,17.25
2017-03-26T06:37:39.141Z,17.27
2017-03-26T06:37:53.375Z,17.3
2017-03-26T06:38:07.531Z,17.36
2017-03-26T06:38:21.690Z,17.3
2017-03-26T06:38:35.804Z,17.3
2017-03-26T06:38:49.923Z,17.28
2017-03-26T06:39:04.035Z,17.39
2017-03-26T06:39:18.151Z,17.36
2017-03-26T06:39:32.369Z,17.38
2017-03-26T06:39:46.546Z,17.4
2017-03-26T06:40:00.673Z,17.36
2017-03-26T06:40:14.849Z,17.45
2017-03-26T06:40:28.975Z,17.39
2017-03-26T06:40:43.163Z,17.42
2017-03-26T06:40:57.276Z,17.35
2017-03-26T06:41:11.392Z,17.35
2017-03-26T06:41:25.479Z,17.35
2017-03-26T06:41:39.576Z,17.32
2017-03-26T06:41:53.782Z,17.43
2017-03-26T06:42:07.934Z,17.36
2017-03-26T06:42:22.059Z,17.43
2017-03-26T06:42:36.229Z,17.46
2017-03-26T06:42:50.328Z,17.4
2017-03-26T06:43:04.517Z,17.36
2017-03-26T06:43:18.657Z,17.43
2017-03-26T06:43:32.822Z,17.5
2017-03-26T06:43:47.007Z,17.46
2017-03-26T06:44:01.311Z,17.42
2017-03-26T06:44:15.480Z,17.4
2017-03-26T06:44:29.632Z,17.42
2017-03-26T06:44:43.808Z,17.42
2017-03-26T06:44:57.970Z,17.43
2017-03-26T06:45:12.075Z,17.42
2017-03-26T06:45:26.231Z,17.42
2017-03-26T06:45:40.380Z,17.36
2017-03-26T06:45:54.510Z,17.42
2017-03-26T06:46:08.650Z,17.42
2017-03-26T06:46:22.797Z,17.39
2017-03-26T06:46:36.996Z,17.31
2017-03-26T06:46:51.133Z,17.36
2017-03-26T06:47:05.241Z,17.42
2017-03-26T06:47:19.616Z,17.39
2017-03-26T06:47:33.741Z,17.38
2017-03-26T06:47:47.932Z,17.38
2017-03-26T06:48:02.071Z,17.39
2017-03-26T06:48:16.282Z,17.36
2017-03-26T06:48:30.420Z,17.38
2017-03-26T06:48:44.551Z,17.39
2017-03-26T06:48:58.797Z,17.28
2017-03-26T06:49:12.952Z,17.36
2017-03-26T06:49:27.105Z,17.39
2017-03-26T06:49:41.266Z,17.28
2017-03-26T06:49:55.426Z,17.27
2017-03-26T06:50:09.573Z,17.4
2017-03-26T06:50:23.709Z,17.35
2017-03-26T06:50:37.839Z,17.28
2017-03-26T06:50:51.994Z,17.32
2017-03-26T06:51:06.127Z,17.43
2017-03-26T06:51:20.263Z,17.43
2017-03-26T06:51:34.391Z,17.45
2017-03-26T06:51:48.533Z,17.46
2017-03-26T06:52:02.660Z,17.49
2017-03-26T06:52:16.831Z,17.58
2017-03-26T06:52:31.011Z,17.58
2017-03-26T06:52:45.212Z,17.57
2017-03-26T06:52:59.369Z,17.55
2017-03-26T06:53:13.472Z,17.55
2017-03-26T06:53:27.645Z,17.54
2017-03-26T06:53:41.828Z,17.52
2017-03-26T06:53:55.945Z,17.5
2017-03-26T06:54:10.103Z,17.52
2017-03-26T06:54:24.220Z,17.52
2017-03-26T06:54:38.322Z,17.5
2017-03-26T06:54:52.448Z,17.49
2017-03-26T06:55:06.561Z,17.57
2017-03-26T06:55:20.705Z,17.49
2017-03-26T06:55:34.862Z,17.46
2017-03-26T06:55:49.017Z,17.42
2017-03-26T06:56:03.130Z,17.4
2017-03-26T06:56:17.250Z,17.36
2017-03-26T06:56:31.435Z,17.36
2017-03-26T06:56:45.621Z,17.47
2017-03-26T06:56:59.724Z,17.39
2017-03-26T06:57:13.833Z,17.43
2017-03-26T06:57:27.967Z,17.35
2017-03-26T06:57:42.123Z,17.4
2017-03-26T06:57:56.264Z,17.42
2017-03-26T06:58:10.430Z,17.38
2017-03-26T06:58:24.565Z,17.36
2017-03-26T06:58:38.714Z,17.4
2017-03-26T06:58:52.800Z,17.32
2017-03-26T06:59:06.959Z,17.35
2017-03-26T06:59:21.127Z,17.25
2017-03-26T06:59:35.297Z,17.27
2017-03-26T06:59:49.448Z,17.28
2017-03-26T07:00:03.615Z,17.27
2017-03-26T07:00:17.734Z,17.21
2017-03-26T07:00:31.889Z,17.2
2017-03-26T07:00:46.005Z,17.21
2017-03-26T07:01:00.129Z,17.17
2017-03-26T07:01:14.315Z,17.12
2017-03-26T07:01:28.420Z,17.06
2017-03-26T07:01:42.757Z,17.12
2017-03-26T07:01:56.879Z,17.09
2017-03-26T07:02:11.011Z,17.1
2017-03-26T07:02:25.125Z,17.07
2017-03-26T07:02:39.257Z,17.02
2017-03-26T07:02:53.457Z,17.06
2017-03-26T07:03:07.584Z,17.05
2017-03-26T07:03:21.985Z,17.07
2017-03-26T07:03:36.141Z,17.12
2017-03-26T07:03:50.364Z,16.99
2017-03-26T07:04:04.625Z,17
2017-03-26T07:04:18.741Z,17.05
2017-03-26T07:04:32.915Z,17.02
2017-03-26T07:04:47.123Z,17.03
2017-03-26T07:05:01.290Z,16.95
2017-03-26T07:05:15.444Z,17.05
2017-03-26T07:05:29.552Z,16.99
2017-03-26T07:05:43.906Z,16.91
2017-03-26T07:05:58.058Z,16.94
2017-03-26T07:06:12.244Z,16.91
2017-03-26T07:06:26.429Z,16.95
2017-03-26T07:06:40.570Z,16.87
2017-03-26T07:06:54.724Z,16.94
2017-03-26T07:07:08.944Z,17
2017-03-26T07:07:23.070Z,17.02
2017-03-26T07:07:37.200Z,17.02
2017-03-26T07:07:51.362Z,16.99
2017-03-26T07:08:05.523Z,17.03
2017-03-26T07:08:19.651Z,16.97
2017-03-26T07:08:33.789Z,17.02
2017-03-26T07:08:47.927Z,16.99
2017-03-26T07:09:02.097Z,17.03
2017-03-26T07:09:16.195Z,16.99
2017-03-26T07:09:30.462Z,16.94
2017-03-26T07:09:44.625Z,16.95
2017-03-26T07:09:58.767Z,16.97
2017-03-26T07:10:12.947Z,17